createdAt,value
2022-08-12T00:02:04.309Z,22.60
2022-08-12T00:04:52.662Z,22.70
2022-08-12T00:07:38.947Z,22.60
2022-08-12T00:10:25.247Z,22.60
2022-08-12T00:13:12.363Z,22.60
2022-08-12T00:16:00.399Z,22.60
2022-08-12T00:18:46.342Z,22.50
2022-08-12T00:21:32.325Z,22.50
2022-08-12T00:24:22.571Z,22.40
2022-08-12T00:27:08.669Z,22.40
2022-08-12T00:29:55.512Z,22.40
2022-08-12T00:32:41.314Z,22.40
2022-08-12T00:35:40.801Z,22.30
2022-08-12T00:38:26.709Z,22.30
2022-08-12T00:41:13.870Z,22.20
2022-08-12T00:43:45.090Z,22.20
2022-08-12T00:46:32.376Z,22.30
2022-08-12T00:49:02.640Z,22.20
2022-08-12T00:51:52.954Z,22.20
2022-08-12T00:54:21.167Z,22.10
2022-08-12T00:56:50.997Z,22.10
2022-08-12T00:59:19.225Z,22.10
2022-08-12T01:02:10.595Z,22.10
2022-08-12T01:04:59.299Z,22.00
2022-08-12T01:07:47.430Z,22.00
2022-08-12T01:10:33.398Z,22.00
2022-08-12T01:13:07.730Z,21.90
2022-08-12T01:15:50.419Z,21.90
2022-08-12T01:18:21.246Z,21.90
2022-08-12T01:20:55.882Z,21.80
2022-08-12T01:23:50.295Z,21.80
2022-08-12T01:26:23.333Z,21.70
2022-08-12T01:28:55.926Z,21.70
2022-08-12T01:31:29.328Z,21.70
2022-08-12T01:34:03.566Z,21.70
2022-08-12T01:36:38.117Z,21.60
2022-08-12T01:39:06.642Z,21.60
2022-08-12T01:41:41.096Z,21.60
2022-08-12T01:44:12.633Z,21.60
2022-08-12T01:46:53.477Z,21.50
2022-08-12T01:49:44.288Z,21.50
2022-08-12T01:52:22.822Z,21.50
2022-08-12T01:54:52.831Z,21.40
2022-08-12T01:57:58.867Z,21.40
2022-08-12T02:00:19.119Z,21.40
2022-08-12T02:02:54.622Z,21.30
2022-08-12T02:05:57.000Z,21.30
2022-08-12T02:08:52.158Z,21.20
2022-08-12T02:11:25.996Z,21.20
2022-08-12T02:14:13.945Z,21.20
2022-08-12T02:16:59.179Z,21.10
2022-08-12T02:19:55.215Z,21.20
2022-08-12T02:22:28.829Z,21.10
2022-08-12T02:25:04.548Z,21.10
2022-08-12T02:27:39.429Z,21.10
2022-08-12T02:30:11.285Z,21.00
2022-08-12T02:32:42.988Z,21.00
2022-08-12T02:35:14.993Z,21.00
2022-08-12T02:37:45.499Z,21.00
2022-08-12T02:40:15.097Z,21.00
2022-08-12T02:42:52.488Z,20.90
2022-08-12T02:45:28.595Z,20.90
2022-08-12T02:48:01.140Z,20.90
2022-08-12T02:50:32.561Z,20.80
2022-08-12T02:53:01.513Z,20.80
2022-08-12T02:55:34.994Z,20.80
2022-08-12T02:58:12.509Z,20.80
2022-08-12T03:00:45.901Z,20.80
2022-08-12T03:03:15.491Z,20.70
2022-08-12T03:05:52.611Z,20.70
2022-08-12T03:08:32.553Z,20.60
2022-08-12T03:11:14.340Z,20.60
2022-08-12T03:13:47.310Z,20.60
2022-08-12T03:16:16.943Z,20.60
2022-08-12T03:18:46.289Z,20.50
2022-08-12T03:21:55.442Z,20.50
2022-08-12T03:24:08.976Z,20.50
2022-08-12T03:26:38.583Z,20.50
2022-08-12T03:29:07.888Z,20.50
2022-08-12T03:31:37.287Z,20.40
2022-08-12T03:34:08.624Z,20.40
2022-08-12T03:36:38.864Z,20.50
2022-08-12T03:39:36.999Z,20.40
2022-08-12T03:42:24.210Z,20.40
2022-08-12T03:45:15.775Z,20.40
2022-08-12T03:48:10.005Z,20.30
2022-08-12T03:50:55.929Z,20.30
2022-08-12T03:53:45.393Z,20.30
2022-08-12T03:56:31.343Z,20.30
2022-08-12T03:59:18.024Z,20.30
2022-08-12T04:01:52.513Z,20.30
2022-08-12T04:04:23.506Z,20.30
2022-08-12T04:06:52.430Z,20.20
2022-08-12T04:09:22.174Z,20.20
2022-08-12T04:12:08.521Z,20.20
2022-08-12T04:14:37.049Z,20.20
2022-08-12T04:17:05.772Z,20.10
2022-08-12T04:19:35.244Z,20.10
2022-08-12T04:22:03.963Z,20.10
2022-08-12T04:24:34.880Z,20.00
2022-08-12T04:27:05.471Z,20.10
2022-08-12T04:30:29.750Z,20.10
2022-08-12T04:32:22.961Z,20.00
2022-08-12T04:34:52.491Z,20.10
2022-08-12T04:37:20.935Z,20.00
2022-08-12T04:39:50.067Z,20.00
2022-08-12T04:42:18.605Z,20.00
2022-08-12T04:44:46.641Z,20.00
2022-08-12T04:47:16.517Z,20.10
2022-08-12T04:49:46.427Z,20.00
2022-08-12T04:52:16.401Z,20.10
2022-08-12T04:54:44.736Z,20.10
2022-08-12T04:57:12.852Z,20.10
2022-08-12T04:59:48.372Z,20.10
2022-08-12T05:02:21.719Z,20.10
2022-08-12T05:04:52.594Z,20.20
2022-08-12T05:07:24.348Z,20.20
2022-08-12T05:10:01.952Z,20.30
2022-08-12T05:12:36.560Z,20.30
2022-08-12T05:15:18.964Z,20.40
2022-08-12T05:17:53.617Z,20.50
2022-08-12T05:20:22.717Z,20.60
2022-08-12T05:22:57.120Z,20.60
2022-08-12T05:25:26.523Z,20.70
2022-08-12T05:27:57.931Z,20.80
2022-08-12T05:30:27.692Z,20.80
2022-08-12T05:33:00.222Z,20.90
2022-08-12T05:35:29.251Z,20.90
2022-08-12T05:38:12.587Z,21.00
2022-08-12T05:40:41.237Z,21.10
2022-08-12T05:43:09.693Z,21.20
2022-08-12T05:45:42.852Z,21.30
2022-08-12T05:48:13.293Z,21.40
2022-08-12T05:50:41.599Z,21.40
2022-08-12T05:53:11.040Z,21.50
2022-08-12T05:55:40.234Z,21.60
2022-08-12T05:58:09.089Z,21.60
2022-08-12T06:00:38.090Z,21.70
2022-08-12T06:03:07.517Z,21.70
2022-08-12T06:05:53.230Z,21.90
2022-08-12T06:08:26.131Z,22.00
2022-08-12T06:10:54.254Z,22.10
2022-08-12T06:13:25.694Z,22.10
2022-08-12T06:15:57.163Z,22.20
2022-08-12T06:18:29.299Z,22.30
2022-08-12T06:21:01.529Z,22.40
2022-08-12T06:23:31.443Z,22.50
2022-08-12T06:26:00.460Z,22.60
2022-08-12T06:28:30.526Z,22.70
2022-08-12T06:31:24.917Z,22.70
2022-08-12T06:34:00.521Z,22.70
2022-08-12T06:36:38.137Z,22.80
2022-08-12T06:39:14.691Z,22.80
2022-08-12T06:42:30.915Z,22.80
2022-08-12T06:44:50.414Z,22.80
2022-08-12T06:47:19.534Z,22.80
2022-08-12T06:49:48.626Z,22.90
2022-08-12T06:52:17.311Z,22.90
2022-08-12T06:54:46.737Z,23.10
2022-08-12T06:58:06.892Z,23.30
2022-08-12T07:00:04.412Z,23.30
2022-08-12T07:02:36.846Z,23.30
2022-08-12T07:05:06.329Z,23.30
2022-08-12T07:07:34.390Z,23.40
2022-08-12T07:10:08.202Z,23.40
2022-08-12T07:12:37.678Z,23.50
2022-08-12T07:15:06.749Z,23.50
2022-08-12T07:17:37.834Z,23.50
2022-08-12T07:20:29.803Z,23.50
2022-08-12T07:22:59.992Z,23.60
2022-08-12T07:25:40.648Z,23.50
2022-08-12T07:28:16.314Z,23.60
2022-08-12T07:30:46.101Z,23.60
2022-08-12T07:33:16.892Z,23.50
2022-08-12T07:35:48.175Z,23.50
2022-08-12T07:38:29.757Z,23.60
2022-08-12T07:41:03.344Z,23.70
2022-08-12T07:43:32.586Z,23.80
2022-08-12T07:46:02.149Z,23.80
2022-08-12T07:48:36.956Z,23.90
2022-08-12T07:51:05.889Z,24.00
2022-08-12T07:53:35.071Z,24.10
2022-08-12T07:56:19.845Z,24.10
2022-08-12T07:58:48.005Z,24.20
2022-08-12T08:01:19.696Z,24.40
2022-08-12T08:04:07.720Z,24.20
2022-08-12T08:06:36.097Z,24.30
2022-08-12T08:09:06.352Z,24.40
2022-08-12T08:11:53.504Z,24.50
2022-08-12T08:14:22.913Z,24.60
2022-08-12T08:16:51.029Z,24.70
2022-08-12T08:19:23.666Z,24.80
2022-08-12T08:21:52.175Z,24.90
2022-08-12T08:24:20.338Z,25.00
2022-08-12T08:26:52.118Z,25.10
2022-08-12T08:29:22.707Z,25.10
2022-08-12T08:31:54.642Z,25.10
2022-08-12T08:34:33.870Z,25.10
2022-08-12T08:37:17.515Z,25.20
2022-08-12T08:39:45.627Z,25.30
2022-08-12T08:42:32.416Z,25.40
2022-08-12T08:45:12.890Z,25.50
2022-08-12T08:47:44.499Z,25.60
2022-08-12T08:50:15.315Z,25.60
2022-08-12T08:52:43.723Z,25.70
2022-08-12T08:55:13.982Z,25.90
2022-08-12T08:57:47.718Z,26.10
2022-08-12T09:00:16.678Z,26.20
2022-08-12T09:02:49.171Z,26.40
2022-08-12T09:05:26.414Z,26.50
2022-08-12T09:08:09.139Z,26.50
2022-08-12T09:10:45.371Z,26.70
2022-08-12T09:14:12.254Z,26.80
2022-08-12T09:16:20.883Z,26.80
2022-08-12T09:18:52.133Z,26.90
2022-08-12T09:24:11.254Z,27.20
2022-08-12T09:26:46.235Z,27.60
2022-08-12T09:29:16.647Z,27.60
2022-08-12T09:32:02.803Z,27.60
2022-08-12T09:34:37.793Z,27.60
2022-08-12T09:37:19.661Z,27.50
2022-08-12T09:40:05.883Z,27.40
2022-08-12T09:43:15.477Z,27.50
2022-08-12T09:46:11.950Z,27.70
2022-08-12T09:48:39.326Z,27.80
2022-08-12T09:51:20.368Z,27.90
2022-08-12T09:54:10.621Z,27.70
2022-08-12T09:57:02.112Z,27.70
2022-08-12T10:00:14.810Z,27.80
2022-08-12T10:02:43.307Z,27.90
2022-08-12T10:05:13.808Z,28.10
2022-08-12T10:07:46.103Z,28.20
2022-08-12T10:10:24.372Z,28.00
2022-08-12T10:13:12.558Z,28.00
2022-08-12T10:16:03.041Z,27.90
2022-08-12T10:18:35.429Z,28.20
2022-08-12T10:21:07.916Z,28.60
2022-08-12T10:23:39.392Z,28.60
2022-08-12T10:26:36.960Z,28.90
2022-08-12T10:30:37.613Z,29.40
2022-08-12T10:32:44.157Z,29.70
2022-08-12T10:35:11.050Z,29.50
2022-08-12T10:38:39.128Z,29.30
2022-08-12T10:40:32.254Z,29.30
2022-08-12T10:43:18.924Z,29.40
2022-08-12T10:45:49.539Z,29.60
2022-08-12T10:48:33.637Z,29.70
2022-08-12T10:51:51.518Z,29.70
2022-08-12T10:54:00.643Z,29.90
2022-08-12T10:56:34.598Z,29.90
2022-08-12T10:59:05.239Z,30.20
2022-08-12T11:04:19.243Z,30.40
2022-08-12T11:04:41.425Z,30.60
2022-08-12T11:08:34.163Z,30.80
2022-08-12T11:10:02.827Z,30.60
2022-08-12T11:12:55.298Z,30.30
2022-08-12T11:15:33.553Z,30.30
2022-08-12T11:18:18.517Z,30.40
2022-08-12T11:20:49.038Z,30.80
2022-08-12T11:23:25.018Z,31.00
2022-08-12T11:26:06.505Z,30.60
2022-08-12T11:28:37.611Z,30.10
2022-08-12T11:31:12.387Z,30.20
2022-08-12T11:34:04.285Z,30.30
2022-08-12T11:36:31.822Z,30.60
2022-08-12T11:39:05.050Z,31.00
2022-08-12T11:41:34.754Z,31.10
2022-08-12T11:44:35.895Z,31.20
2022-08-12T11:46:54.104Z,31.20
2022-08-12T11:49:31.827Z,31.50
2022-08-12T11:52:02.329Z,32.00
2022-08-12T11:54:33.528Z,31.80
2022-08-12T11:58:14.251Z,31.50
2022-08-12T12:02:39.804Z,31.40
2022-08-12T12:05:08.929Z,31.50
2022-08-12T12:08:41.218Z,31.60
2022-08-12T12:10:29.351Z,31.90
2022-08-12T12:12:57.446Z,32.00
2022-08-12T12:15:37.386Z,32.40
2022-08-12T12:18:30.885Z,32.50
2022-08-12T12:21:01.174Z,31.80
2022-08-12T12:23:30.899Z,31.80
2022-08-12T12:26:09.768Z,32.10
2022-08-12T12:28:55.032Z,32.10
2022-08-12T12:32:09.863Z,31.80
2022-08-12T12:34:13.234Z,32.10
2022-08-12T12:37:00.974Z,32.20
2022-08-12T12:39:29.972Z,31.90
2022-08-12T12:42:52.189Z,31.70
2022-08-12T12:45:19.638Z,31.50
2022-08-12T12:47:59.510Z,31.40
2022-08-12T12:50:35.334Z,31.30
2022-08-12T12:53:04.245Z,31.10
2022-08-12T12:55:35.970Z,31.00
2022-08-12T12:58:14.411Z,31.20
2022-08-12T13:00:49.997Z,31.50
2022-08-12T13:03:19.479Z,32.10
2022-08-12T13:05:53.737Z,32.20
2022-08-12T13:08:28.241Z,32.20
2022-08-12T13:11:00.555Z,32.40
2022-08-12T13:14:07.006Z,32.00
2022-08-12T13:16:21.723Z,32.20
2022-08-12T13:18:50.501Z,32.30
2022-08-12T13:21:32.938Z,32.40
2022-08-12T13:24:02.625Z,32.50
2022-08-12T13:26:40.611Z,32.80
2022-08-12T13:29:11.502Z,33.00
2022-08-12T13:32:17.798Z,33.10
2022-08-12T13:34:34.314Z,33.40
2022-08-12T13:37:04.497Z,33.40
2022-08-12T13:39:37.327Z,33.00
2022-08-12T13:42:14.309Z,32.10
2022-08-12T13:44:46.336Z,31.90
2022-08-12T13:47:19.616Z,32.00
2022-08-12T13:49:55.394Z,32.00
2022-08-12T13:52:24.285Z,32.00
2022-08-12T13:54:56.143Z,31.90
2022-08-12T13:57:26.428Z,31.70
2022-08-12T14:00:00.787Z,31.80
2022-08-12T14:02:29.989Z,32.30
2022-08-12T14:04:58.029Z,32.50
2022-08-12T14:07:27.446Z,32.30
2022-08-12T14:10:16.352Z,32.30
2022-08-12T14:12:54.544Z,32.30
2022-08-12T14:15:36.746Z,31.70
2022-08-12T14:18:13.829Z,31.10
2022-08-12T14:20:47.572Z,30.60
2022-08-12T14:24:00.668Z,30.50
2022-08-12T14:26:07.385Z,30.60
2022-08-12T14:28:45.211Z,30.90
2022-08-12T14:31:32.031Z,31.10
2022-08-12T14:34:04.856Z,31.30
2022-08-12T14:36:34.156Z,31.60
2022-08-12T14:39:06.073Z,32.20
2022-08-12T14:41:36.909Z,32.30
2022-08-12T14:45:01.640Z,32.40
2022-08-12T14:47:07.597Z,32.50
2022-08-12T14:50:37.063Z,33.00
2022-08-12T14:52:55.966Z,33.30
2022-08-12T14:58:02.459Z,33.50
2022-08-12T15:00:52.412Z,33.90
2022-08-12T15:03:52.553Z,34.10
2022-08-12T15:06:44.428Z,33.80
2022-08-12T15:09:11.819Z,33.40
2022-08-12T15:11:54.539Z,33.60
2022-08-12T15:14:30.198Z,34.00
2022-08-12T15:17:00.458Z,34.50
2022-08-12T15:20:31.512Z,34.60
2022-08-12T15:22:37.233Z,34.90
2022-08-12T15:25:07.946Z,35.20
2022-08-12T15:28:05.607Z,35.10
2022-08-12T15:30:32.232Z,34.90
2022-08-12T15:33:12.379Z,34.40
2022-08-12T15:35:50.250Z,34.00
2022-08-12T15:38:25.269Z,33.50
2022-08-12T15:40:54.285Z,33.00
2022-08-12T15:43:51.959Z,32.30
2022-08-12T15:46:15.638Z,32.30
2022-08-12T15:48:46.814Z,32.50
2022-08-12T15:51:57.609Z,32.90
2022-08-12T15:54:35.231Z,33.10
2022-08-12T15:57:08.165Z,33.20
2022-08-12T15:59:51.317Z,33.00
2022-08-12T16:02:29.880Z,33.10
2022-08-12T16:04:58.398Z,33.00
2022-08-12T16:07:29.850Z,32.90
2022-08-12T16:10:05.390Z,32.80
2022-08-12T16:12:43.146Z,32.70
2022-08-12T16:15:13.342Z,32.80
2022-08-12T16:18:18.868Z,32.70
2022-08-12T16:20:33.743Z,32.70
2022-08-12T16:23:26.289Z,32.70
2022-08-12T16:26:05.485Z,33.00
2022-08-12T16:28:38.306Z,33.30
2022-08-12T16:31:06.577Z,33.50
2022-08-12T16:33:59.468Z,33.50
2022-08-12T16:36:31.338Z,33.40
2022-08-12T16:39:03.434Z,33.30
2022-08-12T16:41:39.509Z,33.20
2022-08-12T16:44:08.632Z,33.00
2022-08-12T16:46:37.561Z,32.60
2022-08-12T16:49:13.075Z,32.20
2022-08-12T16:51:46.985Z,32.10
2022-08-12T16:54:18.664Z,32.10
2022-08-12T16:56:55.152Z,31.90
2022-08-12T16:59:31.031Z,32.00
2022-08-12T17:02:31.322Z,32.30
2022-08-12T17:05:04.098Z,32.40
2022-08-12T17:07:36.124Z,32.30
2022-08-12T17:10:08.832Z,32.30
2022-08-12T17:12:38.296Z,32.10
2022-08-12T17:15:25.645Z,31.90
2022-08-12T17:18:39.285Z,31.70
2022-08-12T17:20:47.668Z,31.60
2022-08-12T17:23:17.772Z,31.60
2022-08-12T17:25:52.915Z,31.50
2022-08-12T17:28:22.661Z,31.40
2022-08-12T17:30:57.408Z,31.30
2022-08-12T17:33:33.530Z,31.00
2022-08-12T17:36:05.711Z,30.70
2022-08-12T17:38:35.037Z,30.70
2022-08-12T17:41:22.774Z,30.50
2022-08-12T17:43:56.372Z,30.30
2022-08-12T17:46:33.364Z,30.00
2022-08-12T17:49:18.802Z,29.70
2022-08-12T17:52:02.914Z,29.60
2022-08-12T17:54:32.825Z,29.40
2022-08-12T17:57:16.417Z,29.30
2022-08-12T17:59:48.741Z,29.20
2022-08-12T18:02:25.426Z,29.00
2022-08-12T18:05:05.401Z,29.00
2022-08-12T18:07:39.452Z,29.00
2022-08-12T18:10:08.787Z,28.90
2022-08-12T18:12:40.154Z,28.90
2022-08-12T18:15:26.275Z,28.80
2022-08-12T18:18:02.637Z,28.70
2022-08-12T18:20:35.318Z,28.70
2022-08-12T18:23:06.092Z,28.60
2022-08-12T18:26:14.085Z,28.40
2022-08-12T18:28:43.378Z,28.30
2022-08-12T18:31:13.566Z,28.20
2022-08-12T18:33:45.546Z,28.10
2022-08-12T18:36:22.065Z,28.00
2022-08-12T18:38:55.928Z,28.00
2022-08-12T18:41:34.107Z,27.90
2022-08-12T18:44:09.304Z,27.80
2022-08-12T18:46:53.813Z,27.80
2022-08-12T18:49:31.623Z,27.70
2022-08-12T18:52:04.790Z,27.60
2022-08-12T18:54:36.350Z,27.50
2022-08-12T18:57:19.422Z,27.40
2022-08-12T19:00:00.132Z,27.30
2022-08-12T19:02:33.002Z,27.20
2022-08-12T19:05:09.945Z,27.10
2022-08-12T19:07:49.755Z,27.00
2022-08-12T19:10:27.544Z,27.00
2022-08-12T19:13:18.787Z,26.90
2022-08-12T19:15:54.670Z,26.80
2022-08-12T19:18:29.727Z,26.70
2022-08-12T19:21:11.580Z,26.60
2022-08-12T19:23:44.046Z,26.50
2022-08-12T19:26:12.604Z,26.40
2022-08-12T19:28:41.532Z,26.30
2022-08-12T19:31:44.586Z,26.20
2022-08-12T19:34:56.469Z,26.10
2022-08-12T19:37:22.612Z,26.00
2022-08-12T19:40:09.520Z,25.90
2022-08-12T19:42:44.572Z,25.80
2022-08-12T19:45:15.706Z,25.80
2022-08-12T19:47:46.788Z,25.70
2022-08-12T19:50:19.619Z,25.60
2022-08-12T19:52:54.759Z,25.60
2022-08-12T19:55:25.261Z,25.50
2022-08-12T19:58:03.258Z,25.40
2022-08-12T20:00:34.454Z,25.30
2022-08-12T20:03:06.358Z,25.30
2022-08-12T20:06:05.388Z,25.20
2022-08-12T20:08:27.918Z,25.20
2022-08-12T20:12:13.088Z,25.10
2022-08-12T20:14:00.384Z,25.00
2022-08-12T20:16:51.618Z,24.90
2022-08-12T20:19:52.202Z,24.90
2022-08-12T20:22:16.633Z,24.80
2022-08-12T20:24:54.901Z,24.70
2022-08-12T20:27:29.301Z,24.70
2022-08-12T20:30:13.766Z,24.60
2022-08-12T20:32:53.916Z,24.60
2022-08-12T20:36:06.046Z,24.50
2022-08-12T20:38:26.384Z,24.50
2022-08-12T20:40:55.297Z,24.40
2022-08-12T20:43:28.363Z,24.40
2022-08-12T20:46:02.302Z,24.40
2022-08-12T20:48:30.526Z,24.40
2022-08-12T20:51:04.510Z,24.30
2022-08-12T20:53:58.639Z,24.30
2022-08-12T20:56:31.207Z,24.20
2022-08-12T20:59:01.467Z,24.10
2022-08-12T21:01:47.022Z,24.10
2022-08-12T21:04:36.442Z,24.10
2022-08-12T21:07:10.372Z,24.00
2022-08-12T21:09:42.869Z,24.00
2022-08-12T21:12:27.368Z,24.00
2022-08-12T21:15:17.542Z,24.00
2022-08-12T21:18:08.949Z,24.00
2022-08-12T21:20:37.960Z,24.00
2022-08-12T21:23:07.684Z,23.90
2022-08-12T21:25:45.244Z,23.90
2022-08-12T21:28:14.304Z,23.80
2022-08-12T21:31:10.979Z,23.80
2022-08-12T21:34:06.577Z,23.80
2022-08-12T21:36:32.330Z,23.70
2022-08-12T21:39:18.898Z,23.70
2022-08-12T21:41:50.979Z,23.60
2022-08-12T21:44:24.117Z,23.60
2022-08-12T21:47:20.403Z,23.60
2022-08-12T21:49:53.828Z,23.60
2022-08-12T21:52:34.034Z,23.60
2022-08-12T21:55:08.490Z,23.50
2022-08-12T21:57:54.045Z,23.40
2022-08-12T22:00:33.582Z,23.40
2022-08-12T22:04:01.490Z,23.40
2022-08-12T22:06:30.707Z,23.30
2022-08-12T22:09:15.756Z,23.30
2022-08-12T22:11:56.327Z,23.10
2022-08-12T22:14:28.625Z,23.00
2022-08-12T22:16:58.830Z,23.00
2022-08-12T22:19:29.203Z,23.00
2022-08-12T22:22:04.726Z,23.00
2022-08-12T22:24:33.729Z,22.90
2022-08-12T22:27:08.062Z,22.80
2022-08-12T22:30:09.475Z,22.80
2022-08-12T22:32:50.555Z,22.80
2022-08-12T22:35:56.130Z,22.70
2022-08-12T22:38:26.835Z,22.60
2022-08-12T22:41:00.965Z,22.60
2022-08-12T22:44:01.044Z,22.60
2022-08-12T22:46:53.593Z,22.50
2022-08-12T22:49:37.339Z,22.60
2022-08-12T22:52:12.914Z,22.50
2022-08-12T22:54:57.971Z,22.40
2022-08-12T22:57:53.231Z,22.40
2022-08-12T23:00:27.352Z,22.30
2022-08-12T23:03:02.774Z,22.30
2022-08-12T23:05:57.504Z,22.30
2022-08-12T23:08:22.992Z,22.20
2022-08-12T23:10:51.599Z,22.20
2022-08-12T23:13:43.890Z,22.20
2022-08-12T23:16:28.256Z,22.20
2022-08-12T23:19:01.649Z,22.10
2022-08-12T23:22:03.432Z,22.10
2022-08-12T23:24:27.567Z,22.10
2022-08-12T23:27:13.677Z,22.00
2022-08-12T23:29:43.452Z,22.00
2022-08-12T23:32:36.664Z,21.90
2022-08-12T23:35:03.775Z,21.90
2022-08-12T23:37:46.345Z,21.90
2022-08-12T23:40:17.940Z,21.80
2022-08-12T23:42:47.837Z,21.80
2022-08-12T23:45:20.767Z,21.80
2022-08-12T23:48:02.494Z,21.70
2022-08-12T23:50:33.378Z,21.80
2022-08-12T23:53:05.745Z,21.70
2022-08-12T23:55:38.256Z,21.80
2022-08-12T23:58:22.479Z,21.70
